Weather History for K1P1 - April, 2014

Change the Weather History Date:

Thursday, April 10, 2014

  Actual Average (KLCI) Record (KLCI)
Temperature  
Mean Temperature 42 °F -  
Max Temperature 61 °F 51 °F 72 °F (1991)
Min Temperature 22 °F 28 °F 16 °F (1977)
Degree Days  
Heating Degree Days 24    
Moisture  
Dew Point 20 °F    
Average Humidity 49    
Maximum Humidity 93    
Minimum Humidity 17    
Precipitation  
Precipitation 0.00 in - - ()
Sea Level Pressure  
Sea Level Pressure 29.98 in    
Wind  
Wind Speed 2 mph (SE)    
Max Wind Speed 12 mph    
Max Gust Speed 21 mph    
Visibility 10 miles    
Events      
Averages and records for this station are not official NWS values.
T = Trace of Precipitation, MM = Missing Value Source: NWS Daily Summary

Daily Weather History Graph

Daily Weather History Graph

Search for Another Location

Airport or City:

Trip Planner

Search our weather history database for the weather conditions in past years. The results will help you decide how hot, cold, wet, or windy it might be!

Date:

Astronomy

Apr. 10, 2014 Rise Set
Actual Time 6:12 AM EDT 7:24 PM EDT
Civil Twilight 5:43 AM EDT 7:54 PM EDT
Nautical Twilight 5:07 AM EDT 8:29 PM EDT
Astronomical Twilight 4:30 AM EDT 9:07 PM EDT
Moon 2:57 PM EDT (4/10) 3:42 AM EDT (4/10)
Length of Visible Light 14h 11m
Length of Day
13h 11m
Waxing Gibbous, 79% of the Moon is Illuminated
Apr 10
Waxing Gibbous
Apr 15
Full
Apr 22
Last Quarter
Apr 29
New
May 6
First Quarter

Hourly Weather History & Observations

Time (EDT) Temp. Windchill Dew Point Humidity Pressure Visibility Wind Dir Wind Speed Gust Speed Precip Events Conditions
12:15 AM 28.9 °F - 19.0 °F 67% 29.93 in 10.0 mi Calm Calm - N/A   Unknown
12:35 AM 28.2 °F - 20.3 °F 72% 29.94 in 10.0 mi Calm Calm - N/A   Unknown
12:55 AM 27.5 °F - 19.9 °F 73% 29.95 in 10.0 mi Calm Calm - N/A   Unknown
1:15 AM 27.3 °F - 21.0 °F 77% 29.95 in 10.0 mi Calm Calm - N/A   Unknown
1:35 AM 26.6 °F - 20.7 °F 78% 29.95 in 10.0 mi Calm Calm - N/A   Unknown
1:55 AM 27.5 °F - 18.9 °F 70% 29.96 in 10.0 mi Calm Calm - N/A   Unknown
2:15 AM 26.4 °F - 19.8 °F 76% 29.96 in 10.0 mi Calm Calm - N/A   Unknown
2:35 AM 26.6 °F - 20.3 °F 77% 29.97 in 10.0 mi Calm Calm - N/A   Unknown
3:15 AM 25.9 °F - 21.0 °F 82% 29.98 in 10.0 mi Calm Calm - N/A   Unknown
3:35 AM 25.5 °F - 20.8 °F 82% 29.99 in 10.0 mi Calm Calm - N/A   Unknown
3:55 AM 25.3 °F - 20.8 °F 83% 29.99 in 10.0 mi Calm Calm - N/A   Unknown
4:15 AM 25.0 °F - 21.7 °F 87% 30.00 in 10.0 mi Calm Calm - N/A   Unknown
4:35 AM 24.6 °F - 20.7 °F 85% 30.00 in 10.0 mi Calm Calm - N/A   Unknown
4:55 AM 24.4 °F - 21.2 °F 87% 30.01 in 10.0 mi Calm Calm - N/A   Unknown
5:15 AM 24.1 °F - 20.8 °F 87% 30.02 in 10.0 mi Calm Calm - N/A   Unknown
5:35 AM 23.9 °F - 20.5 °F 87% 30.02 in 10.0 mi Calm Calm - N/A   Unknown
5:55 AM 23.5 °F - 20.8 °F 89% 30.03 in 10.0 mi Calm Calm - N/A   Unknown
6:15 AM 22.8 °F - 20.3 °F 90% 30.04 in 10.0 mi Calm Calm - N/A   Unknown
6:35 AM 23.4 °F - 21.2 °F 91% 30.05 in 10.0 mi Calm Calm - N/A   Unknown
6:55 AM 22.6 °F - 20.8 °F 93% 30.06 in 10.0 mi Calm Calm - N/A   Unknown
7:15 AM 22.8 °F - 21.0 °F 93% 30.07 in 10.0 mi Calm Calm - N/A   Unknown
7:35 AM 24.6 °F - 21.9 °F 89% 30.08 in 10.0 mi Calm Calm - N/A   Unknown
7:55 AM 26.2 °F - 21.4 °F 82% 30.08 in 10.0 mi Calm Calm - N/A   Unknown
8:15 AM 28.0 °F - 21.4 °F 76% 30.09 in 10.0 mi Calm Calm - N/A   Unknown
8:35 AM 30.0 °F - 20.1 °F 67% 30.10 in 10.0 mi Calm Calm - N/A   Unknown
8:55 AM 32.0 °F - 19.0 °F 59% 30.10 in 10.0 mi Calm Calm - N/A   Unknown
9:15 AM 33.8 °F - 18.7 °F 54% 30.10 in 10.0 mi Calm Calm - N/A   Unknown
9:35 AM 36.9 °F - 18.5 °F 47% 30.09 in 10.0 mi Calm Calm - N/A   Unknown
9:55 AM 39.2 °F - 18.5 °F 43% 30.08 in 10.0 mi Calm Calm - N/A   Unknown
10:15 AM 40.5 °F 38.4 °F 18.7 °F 42% 30.08 in 10.0 mi SE 3.5 mph - N/A   Unknown
10:35 AM 42.8 °F 41.1 °F 18.5 °F 38% 30.07 in 10.0 mi East 3.5 mph - N/A   Unknown
10:55 AM 44.1 °F 40.8 °F 20.3 °F 39% 30.06 in 10.0 mi ENE 5.8 mph - N/A   Unknown
11:15 AM 45.3 °F 43.0 °F 19.9 °F 36% 30.06 in 10.0 mi NE 4.6 mph - N/A   Unknown
11:35 AM 46.9 °F - 19.6 °F 34% 30.05 in 10.0 mi NNE 3.5 mph - N/A   Unknown
11:55 AM 48.9 °F - 18.3 °F 30% 30.04 in 10.0 mi Calm Calm - N/A   Unknown
12:15 PM 50.9 °F - 21.2 °F 31% 30.03 in 10.0 mi Calm Calm - N/A   Unknown
12:35 PM 52.9 °F - 18.9 °F 26% 30.01 in 10.0 mi SSW 5.8 mph - N/A   Unknown
12:55 PM 54.5 °F - 18.9 °F 25% 30.01 in 10.0 mi SW 4.6 mph - N/A   Unknown
1:15 PM 55.0 °F - 14.9 °F 21% 30.00 in 10.0 mi SSW 11.5 mph 16.1 mph N/A   Unknown
1:35 PM 55.6 °F - 18.3 °F 23% 29.99 in 10.0 mi SSE 6.9 mph - N/A   Unknown
1:55 PM 55.6 °F - 17.6 °F 23% 29.99 in 10.0 mi SSE 5.8 mph - N/A   Unknown
2:15 PM 56.5 °F - 17.2 °F 22% 29.98 in 10.0 mi ESE 5.8 mph - N/A   Unknown
2:35 PM 57.6 °F - 16.0 °F 20% 29.98 in 10.0 mi South 5.8 mph 17.3 mph N/A   Unknown
2:55 PM 58.1 °F - 16.2 °F 19% 29.97 in 10.0 mi South 8.1 mph 16.1 mph N/A   Unknown
3:15 PM 58.8 °F - 16.7 °F 19% 29.95 in 10.0 mi South 6.9 mph - N/A   Unknown
3:35 PM 59.0 °F - 15.4 °F 18% 29.94 in 10.0 mi SSE 8.1 mph - N/A   Unknown
3:55 PM 59.9 °F - 14.2 °F 17% 29.93 in 10.0 mi SSE 9.2 mph - N/A   Unknown
4:15 PM 61.0 °F - 15.8 °F 17% 29.93 in 10.0 mi South 8.1 mph - N/A   Unknown
4:35 PM 61.2 °F - 15.3 °F 17% 29.92 in 10.0 mi South 11.5 mph 20.7 mph N/A   Unknown
4:55 PM 61.2 °F - 15.6 °F 17% 29.90 in 10.0 mi SSE 8.1 mph - N/A   Unknown
5:15 PM 61.5 °F - 16.9 °F 18% 29.89 in 10.0 mi SSE 4.6 mph - N/A   Unknown
5:35 PM 61.7 °F - 19.2 °F 19% 29.89 in 10.0 mi SSE 3.5 mph - N/A   Unknown
5:55 PM 61.2 °F - 18.3 °F 19% 29.89 in 10.0 mi South 6.9 mph - N/A   Unknown
6:15 PM 61.3 °F - 19.0 °F 20% 29.88 in 10.0 mi SSE 6.9 mph 16.1 mph N/A   Unknown
6:35 PM 59.7 °F - 20.1 °F 22% 29.88 in 10.0 mi South 8.1 mph - N/A   Unknown
6:55 PM 58.8 °F - 21.2 °F 23% 29.88 in 10.0 mi SSE 4.6 mph - N/A   Unknown
7:15 PM 57.6 °F - 22.1 °F 25% 29.89 in 10.0 mi SE 5.8 mph - N/A   Unknown
7:55 PM 55.4 °F - 22.5 °F 28% 29.89 in 10.0 mi SE 5.8 mph - N/A   Unknown
8:15 PM 53.8 °F - 23.4 °F 31% 29.90 in 10.0 mi ENE 3.5 mph - N/A   Unknown
8:35 PM 51.8 °F - 24.3 °F 34% 29.91 in 10.0 mi East 6.9 mph - N/A   Unknown
8:55 PM 51.8 °F - 24.8 °F 35% 29.92 in 10.0 mi East 8.1 mph - N/A   Unknown
9:15 PM 50.9 °F - 25.7 °F 38% 29.91 in 10.0 mi East 8.1 mph - N/A   Unknown
9:35 PM 50.2 °F - 25.2 °F 38% 29.92 in 10.0 mi ENE 6.9 mph - N/A   Unknown
9:55 PM 50.7 °F - 24.4 °F 36% 29.92 in 10.0 mi ENE 6.9 mph - N/A   Unknown
10:15 PM 47.7 °F - 25.9 °F 43% 29.91 in 10.0 mi East 8.1 mph - N/A   Unknown
10:35 PM 48.9 °F - 25.0 °F 39% 29.92 in 10.0 mi East 8.1 mph - N/A   Unknown
10:55 PM 47.5 °F - 25.9 °F 43% 29.91 in 10.0 mi East 5.8 mph - N/A   Unknown
11:15 PM 47.8 °F - 25.9 °F 42% 29.91 in 10.0 mi East 9.2 mph - N/A   Unknown
11:35 PM 47.8 °F - 25.9 °F 42% 29.91 in 10.0 mi East 8.1 mph - N/A   Unknown
11:55 PM 47.7 °F - 26.2 °F 43% 29.90 in 10.0 mi East 6.9 mph - N/A   Unknown